createdAt,value
2022-09-25T00:01:26.588Z,94831.47
2022-09-25T00:03:54.555Z,94823.84
2022-09-25T00:06:26.168Z,94825.78
2022-09-25T00:08:54.473Z,94825.59
2022-09-25T00:11:25.068Z,94812.63
2022-09-25T00:13:53.068Z,94822.38
2022-09-25T00:16:23.189Z,94823.19
2022-09-25T00:19:09.253Z,94818.28
2022-09-25T00:21:39.636Z,94823.63
2022-09-25T00:24:10.520Z,94819.69
2022-09-25T00:26:41.162Z,94825.03
2022-09-25T00:29:11.631Z,94814.44
2022-09-25T00:31:39.797Z,94814.78
2022-09-25T00:34:07.771Z,94809.09
2022-09-25T00:36:38.310Z,94810.44
2022-09-25T00:39:06.540Z,94809.41
2022-09-25T00:41:35.205Z,94818.16
2022-09-25T00:44:04.915Z,94801.66
2022-09-25T00:46:37.965Z,94797.44
2022-09-25T00:49:11.710Z,94789.28
2022-09-25T00:51:45.818Z,94796.06
2022-09-25T00:54:18.604Z,94803.19
2022-09-25T00:56:49.944Z,94787.75
2022-09-25T00:59:20.613Z,94807.88
2022-09-25T01:01:49.224Z,94806.25
2022-09-25T01:04:17.949Z,94795.44
2022-09-25T01:06:47.517Z,94793.00
2022-09-25T01:09:15.711Z,94789.41
2022-09-25T01:11:45.256Z,94786.59
2022-09-25T01:14:15.061Z,94785.91
2022-09-25T01:16:52.156Z,94775.06
2022-09-25T01:19:36.021Z,94763.97
2022-09-25T01:22:12.499Z,94779.50
2022-09-25T01:24:50.455Z,94780.91
2022-09-25T01:27:52.212Z,94773.25
2022-09-25T01:30:22.182Z,94771.31
2022-09-25T01:32:58.326Z,94777.81
2022-09-25T01:35:37.678Z,94771.41
2022-09-25T01:38:15.310Z,94789.44
2022-09-25T01:40:51.392Z,94791.31
2022-09-25T01:43:24.406Z,94787.34
2022-09-25T01:45:57.493Z,94794.47
2022-09-25T01:48:28.677Z,94775.75
2022-09-25T01:51:00.897Z,94780.72
2022-09-25T01:53:39.326Z,94791.13
2022-09-25T01:56:12.678Z,94780.75
2022-09-25T01:58:46.939Z,94791.66
2022-09-25T02:01:23.127Z,94781.09
2022-09-25T02:03:57.397Z,94785.75
2022-09-25T02:06:26.429Z,94784.66
2022-09-25T02:08:59.104Z,94783.84
2022-09-25T02:11:31.567Z,94777.56
2022-09-25T02:14:06.153Z,94763.59
2022-09-25T02:16:38.987Z,94767.38
2022-09-25T02:19:24.587Z,94779.31
2022-09-25T02:22:04.510Z,94776.59
2022-09-25T02:24:41.443Z,94785.97
2022-09-25T02:27:09.313Z,94777.94
2022-09-25T02:29:37.224Z,94787.31
2022-09-25T02:32:09.529Z,94791.88
2022-09-25T02:34:37.886Z,94779.41
2022-09-25T02:37:11.633Z,94782.50
2022-09-25T02:39:40.542Z,94790.41
2022-09-25T02:42:19.624Z,94780.44
2022-09-25T02:45:05.173Z,94777.31
2022-09-25T02:47:38.431Z,94776.00
2022-09-25T02:50:17.225Z,94792.56
2022-09-25T02:52:52.251Z,94783.84
2022-09-25T02:55:27.602Z,94781.91
2022-09-25T02:58:01.456Z,94780.91
2022-09-25T03:00:29.899Z,94782.22
2022-09-25T03:03:01.255Z,94789.66
2022-09-25T03:05:29.287Z,94777.19
2022-09-25T03:08:29.498Z,94769.16
2022-09-25T03:10:58.718Z,94791.25
2022-09-25T03:13:31.417Z,94786.44
2022-09-25T03:16:02.766Z,94789.19
2022-09-25T03:18:32.605Z,94784.13
2022-09-25T03:21:00.680Z,94778.38
2022-09-25T03:23:28.574Z,94770.78
2022-09-25T03:25:57.127Z,94770.78
2022-09-25T03:28:26.269Z,94775.41
2022-09-25T03:30:58.930Z,94773.28
2022-09-25T03:33:28.350Z,94770.16
2022-09-25T03:36:06.659Z,94758.88
2022-09-25T03:38:34.702Z,94761.75
2022-09-25T03:41:03.600Z,94774.47
2022-09-25T03:43:33.701Z,94775.56
2022-09-25T03:46:01.686Z,94774.84
2022-09-25T03:48:29.625Z,94778.06
2022-09-25T03:50:57.517Z,94780.75
2022-09-25T03:53:26.893Z,94774.91
2022-09-25T03:55:55.772Z,94777.91
2022-09-25T03:58:23.788Z,94782.59
2022-09-25T04:00:51.636Z,94785.91
2022-09-25T04:03:22.597Z,94793.78
2022-09-25T04:05:50.741Z,94791.28
2022-09-25T04:08:18.616Z,94787.50
2022-09-25T04:10:48.049Z,94791.41
2022-09-25T04:13:17.131Z,94793.91
2022-09-25T04:15:45.258Z,94795.16
2022-09-25T04:18:13.117Z,94789.50
2022-09-25T04:20:40.996Z,94783.28
2022-09-25T04:23:08.931Z,94782.91
2022-09-25T04:25:36.891Z,94791.47
2022-09-25T04:28:07.431Z,94780.13
2022-09-25T04:30:35.444Z,94786.19
2022-09-25T04:33:21.067Z,94790.66
2022-09-25T04:35:49.080Z,94780.78
2022-09-25T04:38:17.184Z,94774.38
2022-09-25T04:40:46.152Z,94786.09
2022-09-25T04:43:15.735Z,94791.03
2022-09-25T04:45:43.690Z,94787.94
2022-09-25T04:48:11.570Z,94784.25
2022-09-25T04:50:39.429Z,94777.84
2022-09-25T04:53:07.295Z,94784.47
2022-09-25T04:55:35.165Z,94788.22
2022-09-25T04:58:03.031Z,94788.25
2022-09-25T05:00:34.073Z,94784.06
2022-09-25T05:03:04.285Z,94788.19
2022-09-25T05:05:32.673Z,94802.09
2022-09-25T05:08:02.353Z,94791.72
2022-09-25T05:10:32.204Z,94800.22
2022-09-25T05:13:01.973Z,94805.84
2022-09-25T05:15:32.927Z,94794.03
2022-09-25T05:18:01.775Z,94789.03
2022-09-25T05:20:29.963Z,94787.75
2022-09-25T05:22:57.923Z,94792.63
2022-09-25T05:25:26.552Z,94792.47
2022-09-25T05:27:55.926Z,94783.41
2022-09-25T05:30:23.963Z,94783.63
2022-09-25T05:32:54.397Z,94791.75
2022-09-25T05:35:24.334Z,94783.03
2022-09-25T05:37:52.529Z,94787.88
2022-09-25T05:40:21.783Z,94796.59
2022-09-25T05:42:49.806Z,94804.88
2022-09-25T05:45:19.280Z,94801.41
2022-09-25T05:47:47.468Z,94800.94
2022-09-25T05:50:18.381Z,94795.94
2022-09-25T05:52:46.256Z,94786.47
2022-09-25T05:55:14.224Z,94806.63
2022-09-25T05:57:42.102Z,94810.88
2022-09-25T06:00:11.498Z,94814.34
2022-09-25T06:02:39.444Z,94812.78
2022-09-25T06:05:09.061Z,94801.47
2022-09-25T06:07:38.536Z,94813.19
2022-09-25T06:10:07.512Z,94817.78
2022-09-25T06:12:35.375Z,94814.72
2022-09-25T06:15:03.314Z,94807.31
2022-09-25T06:17:31.245Z,94816.44
2022-09-25T06:19:59.116Z,94821.28
2022-09-25T06:22:27.016Z,94806.22
2022-09-25T06:24:56.246Z,94832.84
2022-09-25T06:27:24.247Z,94831.56
2022-09-25T06:29:52.160Z,94849.22
2022-09-25T06:32:21.503Z,94827.00
2022-09-25T06:34:49.383Z,94848.44
2022-09-25T06:37:17.287Z,94844.34
2022-09-25T06:39:45.170Z,94843.97
2022-09-25T06:42:14.440Z,94844.56
2022-09-25T06:44:43.919Z,94851.63
2022-09-25T06:47:16.238Z,94847.84
2022-09-25T06:49:46.630Z,94850.50
2022-09-25T06:52:14.542Z,94842.69
2022-09-25T06:54:44.365Z,94849.25
2022-09-25T06:57:14.973Z,94842.03
2022-09-25T06:59:42.907Z,94853.00
2022-09-25T07:02:24.802Z,94862.81
2022-09-25T07:04:52.729Z,94857.81
2022-09-25T07:07:21.129Z,94865.91
2022-09-25T07:09:49.253Z,94869.41
2022-09-25T07:12:18.750Z,94874.63
2022-09-25T07:14:47.717Z,94886.56
2022-09-25T07:17:16.067Z,94884.06
2022-09-25T07:19:44.002Z,94895.06
2022-09-25T07:22:11.954Z,94892.41
2022-09-25T07:24:39.834Z,94899.38
2022-09-25T07:27:07.795Z,94906.16
2022-09-25T07:29:37.725Z,94905.28
2022-09-25T07:32:05.707Z,94883.84
2022-09-25T07:34:36.181Z,94900.28
2022-09-25T07:37:04.446Z,94893.78
2022-09-25T07:39:32.334Z,94888.50
2022-09-25T07:42:00.215Z,94869.34
2022-09-25T07:44:29.462Z,94872.28
2022-09-25T07:46:59.474Z,94879.69
2022-09-25T07:49:27.485Z,94872.66
2022-09-25T07:51:55.604Z,94865.28
2022-09-25T07:54:25.037Z,94854.59
2022-09-25T07:56:53.262Z,94846.50
2022-09-25T07:59:21.255Z,94850.56
2022-09-25T08:01:53.764Z,94838.38
2022-09-25T08:04:23.549Z,94841.44
2022-09-25T08:06:51.494Z,94860.31
2022-09-25T08:09:19.396Z,94852.84
2022-09-25T08:11:47.393Z,94860.50
2022-09-25T08:14:15.833Z,94862.13
2022-09-25T08:16:44.042Z,94852.91
2022-09-25T08:19:12.283Z,94844.41
2022-09-25T08:21:41.582Z,94841.97
2022-09-25T08:24:09.906Z,94847.94
2022-09-25T08:26:38.217Z,94846.75
2022-09-25T08:29:06.936Z,94837.19
2022-09-25T08:31:35.412Z,94830.88
2022-09-25T08:34:28.045Z,94826.66
2022-09-25T08:36:52.938Z,94822.34
2022-09-25T08:39:20.828Z,94818.31
2022-09-25T08:41:51.449Z,94819.63
2022-09-25T08:44:27.537Z,94818.66
2022-09-25T08:47:19.535Z,94827.78
2022-09-25T08:50:01.452Z,94823.63
2022-09-25T08:52:32.185Z,94825.06
2022-09-25T08:55:00.110Z,94821.06
2022-09-25T08:57:35.156Z,94833.66
2022-09-25T09:00:06.953Z,94822.16
2022-09-25T09:02:40.838Z,94826.41
2022-09-25T09:05:18.823Z,94819.97
2022-09-25T09:07:55.199Z,94809.25
2022-09-25T09:10:32.451Z,94810.69
2022-09-25T09:13:06.303Z,94808.03
2022-09-25T09:15:38.422Z,94791.09
2022-09-25T09:18:21.109Z,94789.44
2022-09-25T09:20:53.350Z,94785.16
2022-09-25T09:23:25.202Z,94768.78
2022-09-25T09:26:01.510Z,94781.66
2022-09-25T09:28:58.041Z,94778.94
2022-09-25T09:31:31.534Z,94778.22
2022-09-25T09:34:14.900Z,94780.44
2022-09-25T09:36:47.917Z,94777.56
2022-09-25T09:39:23.982Z,94773.47
2022-09-25T09:42:06.500Z,94745.25
2022-09-25T09:44:51.370Z,94771.50
2022-09-25T09:47:39.473Z,94756.56
2022-09-25T09:50:25.009Z,94752.19
2022-09-25T09:52:59.574Z,94752.06
2022-09-25T09:55:37.573Z,94759.44
2022-09-25T09:58:19.137Z,94755.75
2022-09-25T10:00:49.313Z,94756.53
2022-09-25T10:03:23.069Z,94757.06
2022-09-25T10:05:54.168Z,94741.78
2022-09-25T10:08:22.045Z,94749.41
2022-09-25T10:10:53.961Z,94733.28
2022-09-25T10:13:25.224Z,94733.78
2022-09-25T10:15:58.205Z,94735.28
2022-09-25T10:18:31.961Z,94733.00
2022-09-25T10:21:06.307Z,94731.44
2022-09-25T10:23:40.625Z,94729.22
2022-09-25T10:26:29.036Z,94729.16
2022-09-25T10:28:58.670Z,94715.00
2022-09-25T10:31:30.308Z,94718.13
2022-09-25T10:34:04.060Z,94710.53
2022-09-25T10:36:35.265Z,94714.88
2022-09-25T10:39:31.445Z,94717.19
2022-09-25T10:41:55.455Z,94716.66
2022-09-25T10:44:32.065Z,94696.72
2022-09-25T10:47:46.903Z,94713.06
2022-09-25T10:50:17.323Z,94703.94
2022-09-25T10:52:49.871Z,94701.41
2022-09-25T10:55:28.455Z,94701.47
2022-09-25T10:58:09.494Z,94690.34
2022-09-25T11:00:55.096Z,94696.69
2022-09-25T11:03:25.287Z,94694.09
2022-09-25T11:05:56.768Z,94692.59
2022-09-25T11:08:30.203Z,94686.22
2022-09-25T11:10:59.825Z,94677.94
2022-09-25T11:13:37.017Z,94681.16
2022-09-25T11:16:09.565Z,94680.09
2022-09-25T11:18:41.227Z,94672.81
2022-09-25T11:21:20.910Z,94675.97
2022-09-25T11:24:04.481Z,94671.91
2022-09-25T11:26:36.371Z,94670.09
2022-09-25T11:29:12.630Z,94668.16
2022-09-25T11:31:44.413Z,94664.63
2022-09-25T11:34:21.139Z,94663.94
2022-09-25T11:36:53.240Z,94661.41
2022-09-25T11:39:47.341Z,94655.06
2022-09-25T11:42:20.281Z,94645.75
2022-09-25T11:45:00.792Z,94648.34
2022-09-25T11:47:36.824Z,94652.63
2022-09-25T11:50:09.264Z,94641.25
2022-09-25T11:52:49.368Z,94639.91
2022-09-25T11:55:52.236Z,94642.88
2022-09-25T11:58:51.524Z,94635.06
2022-09-25T12:01:32.846Z,94629.06
2022-09-25T12:04:16.063Z,94622.88
2022-09-25T12:06:58.756Z,94623.44
2022-09-25T12:09:48.505Z,94617.59
2022-09-25T12:12:24.870Z,94615.34
2022-09-25T12:15:03.246Z,94614.44
2022-09-25T12:17:41.147Z,94606.19
2022-09-25T12:20:17.757Z,94605.41
2022-09-25T12:22:56.211Z,94598.91
2022-09-25T12:25:47.994Z,94594.63
2022-09-25T12:28:26.025Z,94591.06
2022-09-25T12:31:05.466Z,94586.38
2022-09-25T12:33:49.676Z,94586.81
2022-09-25T12:36:22.548Z,94590.19
2022-09-25T12:38:55.478Z,94583.47
2022-09-25T12:41:33.122Z,94575.81
2022-09-25T12:44:06.760Z,94581.63
2022-09-25T12:46:43.042Z,94577.25
2022-09-25T12:49:17.654Z,94571.56
2022-09-25T12:51:50.795Z,94551.31
2022-09-25T12:54:25.326Z,94560.69
2022-09-25T12:56:58.219Z,94558.69
2022-09-25T12:59:33.804Z,94559.84
2022-09-25T13:02:09.671Z,94559.13
2022-09-25T13:05:06.390Z,94549.22
2022-09-25T13:07:40.914Z,94548.47
2022-09-25T13:10:22.746Z,94533.22
2022-09-25T13:12:53.142Z,94520.50
2022-09-25T13:15:24.930Z,94517.50
2022-09-25T13:17:53.081Z,94517.13
2022-09-25T13:20:53.141Z,94520.66
2022-09-25T13:23:29.978Z,94512.44
2022-09-25T13:26:01.250Z,94513.56
2022-09-25T13:28:32.530Z,94505.84
2022-09-25T13:31:09.426Z,94503.78
2022-09-25T13:33:50.002Z,94506.63
2022-09-25T13:36:48.840Z,94497.81
2022-09-25T13:39:39.579Z,94519.25
2022-09-25T13:42:14.176Z,94504.81
2022-09-25T13:45:09.177Z,94503.47
2022-09-25T13:48:07.230Z,94496.31
2022-09-25T13:50:41.193Z,94486.63
2022-09-25T13:53:27.828Z,94489.19
2022-09-25T13:56:24.333Z,94487.47
2022-09-25T13:59:28.935Z,94483.09
2022-09-25T14:01:59.989Z,94479.63
2022-09-25T14:04:36.121Z,94482.28
2022-09-25T14:07:22.942Z,94480.53
2022-09-25T14:09:55.488Z,94485.06
2022-09-25T14:12:28.809Z,94481.16
2022-09-25T14:15:01.253Z,94478.06
2022-09-25T14:17:32.252Z,94479.84
2022-09-25T14:20:02.000Z,94481.28
2022-09-25T14:22:43.171Z,94477.06
2022-09-25T14:25:33.037Z,94463.97
2022-09-25T14:28:03.602Z,94451.91
2022-09-25T14:30:32.977Z,94470.84
2022-09-25T14:33:25.820Z,94476.38
2022-09-25T14:36:06.039Z,94464.19
2022-09-25T14:38:56.026Z,94462.63
2022-09-25T14:41:56.782Z,94470.88
2022-09-25T14:44:41.267Z,94475.75
2022-09-25T14:47:14.106Z,94473.34
2022-09-25T14:49:46.413Z,94475.19
2022-09-25T14:52:17.967Z,94456.94
2022-09-25T14:54:49.760Z,94469.13
2022-09-25T14:57:25.460Z,94484.06
2022-09-25T14:59:57.912Z,94478.88
2022-09-25T15:02:34.457Z,94462.13
2022-09-25T15:05:19.447Z,94473.00
2022-09-25T15:07:47.760Z,94474.38
2022-09-25T15:10:27.466Z,94482.81
2022-09-25T15:13:07.279Z,94474.09
2022-09-25T15:15:36.115Z,94474.25
2022-09-25T15:18:04.858Z,94488.06
2022-09-25T15:20:34.715Z,94478.09
2022-09-25T15:23:06.774Z,94471.09
2022-09-25T15:25:39.561Z,94479.22
2022-09-25T15:28:10.039Z,94476.38
2022-09-25T15:30:40.073Z,94469.50
2022-09-25T15:33:20.945Z,94466.53
2022-09-25T15:35:55.798Z,94472.97
2022-09-25T15:38:30.790Z,94463.81
2022-09-25T15:40:59.322Z,94473.56
2022-09-25T15:43:30.054Z,94470.75
2022-09-25T15:45:59.836Z,94461.00
2022-09-25T15:48:32.787Z,94460.22
2022-09-25T15:51:03.364Z,94471.41
2022-09-25T15:53:36.052Z,94475.28
2022-09-25T15:56:16.700Z,94470.25
2022-09-25T15:58:50.571Z,94459.25
2022-09-25T16:01:40.287Z,94466.66
2022-09-25T16:04:28.505Z,94468.63
2022-09-25T16:06:56.468Z,94466.66
2022-09-25T16:09:33.511Z,94455.34
2022-09-25T16:12:22.197Z,94448.56
2022-09-25T16:14:51.995Z,94458.50
2022-09-25T16:17:32.873Z,94469.84
2022-09-25T16:20:04.150Z,94471.56
2022-09-25T16:22:38.786Z,94467.31
2022-09-25T16:25:18.232Z,94455.53
2022-09-25T16:27:47.789Z,94464.31
2022-09-25T16:30:22.779Z,94448.28
2022-09-25T16:32:53.987Z,94466.94
2022-09-25T16:35:26.222Z,94474.78
2022-09-25T16:37:55.100Z,94469.66
2022-09-25T16:40:28.990Z,94476.47
2022-09-25T16:42:58.571Z,94476.09
2022-09-25T16:45:29.833Z,94478.41
2022-09-25T16:48:00.225Z,94465.47
2022-09-25T16:50:32.130Z,94478.06
2022-09-25T16:53:03.597Z,94484.28
2022-09-25T16:55:34.148Z,94479.63
2022-09-25T16:58:03.341Z,94481.72
2022-09-25T17:00:32.710Z,94484.50
2022-09-25T17:03:01.851Z,94490.47
2022-09-25T17:05:32.199Z,94474.81
2022-09-25T17:08:12.502Z,94461.84
2022-09-25T17:10:41.710Z,94483.19
2022-09-25T17:13:09.650Z,94481.47
2022-09-25T17:15:40.527Z,94488.00
2022-09-25T17:18:15.622Z,94500.22
2022-09-25T17:20:43.952Z,94494.28
2022-09-25T17:23:12.839Z,94503.56
2022-09-25T17:25:45.147Z,94490.50
2022-09-25T17:28:14.463Z,94488.00
2022-09-25T17:30:45.679Z,94465.63
2022-09-25T17:33:16.857Z,94469.03
2022-09-25T17:35:49.500Z,94491.31
2022-09-25T17:38:18.023Z,94491.84
2022-09-25T17:40:48.113Z,94484.06
2022-09-25T17:43:17.013Z,94491.19
2022-09-25T17:45:48.907Z,94493.03
2022-09-25T17:48:24.222Z,94497.47
2022-09-25T17:50:53.620Z,94498.75
2022-09-25T17:53:23.128Z,94503.31
2022-09-25T17:55:53.619Z,94494.16
2022-09-25T17:58:23.526Z,94516.78
2022-09-25T18:00:54.173Z,94513.41
2022-09-25T18:03:22.590Z,94518.84
2022-09-25T18:05:52.076Z,94531.75
2022-09-25T18:08:20.087Z,94543.81
2022-09-25T18:10:50.069Z,94543.22
2022-09-25T18:13:20.258Z,94537.06
2022-09-25T18:15:51.029Z,94535.59
2022-09-25T18:18:20.601Z,94533.63
2022-09-25T18:21:09.408Z,94542.47
2022-09-25T18:23:38.898Z,94533.97
2022-09-25T18:26:11.136Z,94544.88
2022-09-25T18:28:39.046Z,94538.53
2022-09-25T18:31:08.379Z,94546.69
2022-09-25T18:33:37.648Z,94539.50
2022-09-25T18:36:05.757Z,94538.47
2022-09-25T18:38:33.673Z,94543.59
2022-09-25T18:41:03.316Z,94537.78
2022-09-25T18:43:32.113Z,94537.50
2022-09-25T18:46:00.898Z,94525.81
2022-09-25T18:48:28.806Z,94512.22
2022-09-25T18:50:58.349Z,94543.03
2022-09-25T18:53:26.231Z,94536.44
2022-09-25T18:55:55.081Z,94551.78
2022-09-25T18:58:22.991Z,94545.19
2022-09-25T19:00:51.105Z,94547.81
2022-09-25T19:03:19.076Z,94546.63
2022-09-25T19:05:59.262Z,94564.50
2022-09-25T19:08:27.259Z,94558.66
2022-09-25T19:10:55.381Z,94557.09
2022-09-25T19:13:23.874Z,94555.91
2022-09-25T19:15:51.846Z,94556.38
2022-09-25T19:18:19.783Z,94562.28
2022-09-25T19:20:55.657Z,94544.50
2022-09-25T19:23:27.613Z,94548.56
2022-09-25T19:25:58.065Z,94548.53
2022-09-25T19:28:26.464Z,94545.53
2022-09-25T19:30:59.462Z,94548.78
2022-09-25T19:33:30.300Z,94540.31
2022-09-25T19:35:59.323Z,94542.13
2022-09-25T19:38:33.381Z,94546.19
2022-09-25T19:41:01.383Z,94547.59
2022-09-25T19:43:29.467Z,94547.41
2022-09-25T19:45:57.534Z,94525.88
2022-09-25T19:48:25.664Z,94542.78
2022-09-25T19:50:53.552Z,94535.72
2022-09-25T19:53:21.504Z,94536.16
2022-09-25T19:55:54.135Z,94543.78
2022-09-25T19:58:23.948Z,94557.28
2022-09-25T20:00:53.564Z,94547.84
2022-09-25T20:03:23.619Z,94557.69
2022-09-25T20:05:51.821Z,94558.72
2022-09-25T20:08:19.957Z,94550.66
2022-09-25T20:10:48.047Z,94528.09
2022-09-25T20:13:18.209Z,94544.59
2022-09-25T20:15:48.100Z,94551.03
2022-09-25T20:18:16.857Z,94543.50
2022-09-25T20:20:45.207Z,94561.03
2022-09-25T20:23:13.091Z,94554.81
2022-09-25T20:25:41.416Z,94547.56
2022-09-25T20:28:12.834Z,94545.50
2022-09-25T20:30:42.246Z,94551.75
2022-09-25T20:33:10.290Z,94542.50
2022-09-25T20:35:38.349Z,94533.63
2022-09-25T20:38:10.978Z,94548.66
2022-09-25T20:40:40.370Z,94523.16
2022-09-25T20:43:08.308Z,94553.75
2022-09-25T20:45:36.273Z,94548.53
2022-09-25T20:48:05.539Z,94552.19
2022-09-25T20:50:33.406Z,94543.16
2022-09-25T20:53:01.294Z,94559.41
2022-09-25T20:55:29.205Z,94544.09
2022-09-25T20:57:57.069Z,94548.09
2022-09-25T21:00:25.020Z,94549.28
2022-09-25T21:02:53.055Z,94531.16
2022-09-25T21:05:22.440Z,94553.78
2022-09-25T21:07:50.317Z,94549.19
2022-09-25T21:10:18.502Z,94553.16
2022-09-25T21:12:46.420Z,94541.03
2022-09-25T21:15:14.346Z,94537.78
2022-09-25T21:17:42.246Z,94528.53
2022-09-25T21:20:11.220Z,94541.38
2022-09-25T21:22:41.195Z,94535.81
2022-09-25T21:25:10.106Z,94525.88
2022-09-25T21:27:38.004Z,94531.50
2022-09-25T21:30:06.726Z,94531.84
2022-09-25T21:32:35.970Z,94533.97
2022-09-25T21:35:03.996Z,94518.22
2022-09-25T21:37:31.890Z,94521.59
2022-09-25T21:40:01.237Z,94498.56
2022-09-25T21:42:32.877Z,94512.66
2022-09-25T21:45:01.194Z,94493.34
2022-09-25T21:47:29.640Z,94493.03
2022-09-25T21:49:57.494Z,94510.75
2022-09-25T21:52:26.616Z,94483.03
2022-09-25T21:54:54.666Z,94498.75
2022-09-25T21:57:23.931Z,94492.56
2022-09-25T21:59:52.444Z,94501.41
2022-09-25T22:02:20.424Z,94497.75
2022-09-25T22:04:48.286Z,94489.28
2022-09-25T22:07:16.534Z,94482.72
2022-09-25T22:09:44.413Z,94506.00
2022-09-25T22:12:12.287Z,94503.63
2022-09-25T22:14:41.721Z,94504.25
2022-09-25T22:17:09.883Z,94506.41
2022-09-25T22:19:37.934Z,94494.06
2022-09-25T22:22:06.000Z,94505.25
2022-09-25T22:24:34.122Z,94505.31
2022-09-25T22:27:02.350Z,94502.53
2022-09-25T22:29:30.312Z,94496.84
2022-09-25T22:31:59.522Z,94501.28
2022-09-25T22:34:29.412Z,94506.78
2022-09-25T22:37:00.254Z,94505.59
2022-09-25T22:39:29.241Z,94522.84
2022-09-25T22:41:57.571Z,94511.84
2022-09-25T22:44:26.171Z,94513.78
2022-09-25T22:46:54.399Z,94517.66
2022-09-25T22:49:23.877Z,94510.75
2022-09-25T22:51:51.767Z,94515.72
2022-09-25T22:54:19.932Z,94508.41
2022-09-25T22:56:47.890Z,94521.41
2022-09-25T22:59:18.179Z,94509.03
2022-09-25T23:01:48.979Z,94518.41
2022-09-25T23:04:19.154Z,94514.66
2022-09-25T23:06:49.062Z,94509.69
2022-09-25T23:09:18.873Z,94504.22
2022-09-25T23:11:46.996Z,94513.69
2022-09-25T23:14:17.297Z,94522.19
2022-09-25T23:16:46.144Z,94499.53
2022-09-25T23:19:21.255Z,94504.06
2022-09-25T23:21:52.609Z,94493.44
2022-09-25T23:24:21.313Z,94488.72
2022-09-25T23:26:49.150Z,94500.34
2022-09-25T23:29:18.788Z,94503.81
2022-09-25T23:31:48.003Z,94485.56
2022-09-25T23:34:16.362Z,94480.00
2022-09-25T23:36:44.308Z,94496.56
2022-09-25T23:39:16.974Z,94500.38
2022-09-25T23:41:45.014Z,94499.19
2022-09-25T23:44:13.871Z,94495.78
2022-09-25T23:46:43.529Z,94485.09
2022-09-25T23:49:12.095Z,94489.25
2022-09-25T23:51:40.502Z,94491.00
2022-09-25T23:54:09.151Z,94491.59
2022-09-25T23:56:39.466Z,94484.34
2022-09-25T23:59:07.356Z,94490.84
